createdAt,value
2022-12-12T00:02:20.615Z,100796.25
2022-12-12T00:05:23.220Z,100802.41
2022-12-12T00:08:27.234Z,100802.41
2022-12-12T00:11:29.904Z,100791.03
2022-12-12T00:14:32.500Z,100798.94
2022-12-12T00:17:35.095Z,100802.44
2022-12-12T00:20:37.732Z,100798.91
2022-12-12T00:23:41.945Z,100797.97
2022-12-12T00:26:44.551Z,100805.06
2022-12-12T00:29:51.924Z,100794.63
2022-12-12T00:32:54.534Z,100802.41
2022-12-12T00:35:57.121Z,100802.41
2022-12-12T00:39:01.327Z,100793.69
2022-12-12T00:42:03.990Z,100803.28
2022-12-12T00:45:07.511Z,100792.81
2022-12-12T00:48:10.322Z,100800.66
2022-12-12T00:51:17.445Z,100794.50
2022-12-12T00:54:21.412Z,100798.91
2022-12-12T00:57:23.983Z,100792.88
2022-12-12T01:00:26.701Z,100795.44
2022-12-12T01:03:29.315Z,100803.25
2022-12-12T01:06:32.405Z,100798.81
2022-12-12T01:09:36.356Z,100805.81
2022-12-12T01:12:38.952Z,100805.81
2022-12-12T01:15:41.600Z,100805.84
2022-12-12T01:18:44.537Z,100805.88
2022-12-12T01:21:47.127Z,100812.88
2022-12-12T01:24:51.055Z,100809.34
2022-12-12T01:27:53.676Z,100818.06
2022-12-12T01:30:56.463Z,100817.19
2022-12-12T01:33:59.124Z,100818.06
2022-12-12T01:37:01.705Z,100820.66
2022-12-12T01:40:08.671Z,100823.28
2022-12-12T01:43:12.964Z,100817.13
2022-12-12T01:46:35.415Z,100819.81
2022-12-12T01:49:38.206Z,100818.94
2022-12-12T01:52:45.037Z,100818.09
2022-12-12T01:55:50.563Z,100821.50
2022-12-12T01:58:56.468Z,100816.34
2022-12-12T02:01:59.143Z,100824.25
2022-12-12T02:05:06.833Z,100823.38
2022-12-12T02:08:12.868Z,100821.63
2022-12-12T02:11:16.852Z,100818.16
2022-12-12T02:14:23.217Z,100819.88
2022-12-12T02:17:43.120Z,100821.56
2022-12-12T02:21:05.881Z,100822.53
2022-12-12T02:24:47.975Z,100823.41
2022-12-12T02:28:17.187Z,100819.00
2022-12-12T02:31:25.874Z,100816.41
2022-12-12T02:34:35.521Z,100816.47
2022-12-12T02:37:46.908Z,100812.97
2022-12-12T02:40:58.819Z,100819.03
2022-12-12T02:44:12.369Z,100811.19
2022-12-12T02:47:21.829Z,100816.41
2022-12-12T02:50:27.330Z,100812.13
2022-12-12T02:53:30.057Z,100813.03
2022-12-12T02:56:45.920Z,100819.06
2022-12-12T02:59:53.377Z,100811.31
2022-12-12T03:03:46.937Z,100820.91
2022-12-12T03:07:18.821Z,100822.63
2022-12-12T03:10:36.455Z,100820.03
2022-12-12T03:13:46.785Z,100813.97
2022-12-12T03:16:56.520Z,100819.19
2022-12-12T03:20:07.715Z,100814.84
2022-12-12T03:23:15.468Z,100816.66
2022-12-12T03:26:22.284Z,100814.88
2022-12-12T03:29:30.148Z,100819.25
2022-12-12T03:32:39.501Z,100820.16
2022-12-12T03:35:48.390Z,100821.88
2022-12-12T03:38:57.230Z,100823.63
2022-12-12T03:42:06.915Z,100823.59
2022-12-12T03:45:15.347Z,100815.78
2022-12-12T03:48:23.015Z,100820.13
2022-12-12T03:51:30.099Z,100826.25
2022-12-12T03:54:36.410Z,100819.28
2022-12-12T03:57:44.692Z,100828.88
2022-12-12T04:00:50.655Z,100830.59
2022-12-12T04:04:01.035Z,100822.78
2022-12-12T04:07:12.403Z,100826.25
2022-12-12T04:10:32.385Z,100828.84
2022-12-12T04:13:42.948Z,100841.03
2022-12-12T04:16:47.352Z,100839.31
2022-12-12T04:20:14.635Z,100846.25
2022-12-12T04:23:38.191Z,100840.16
2022-12-12T04:26:46.065Z,100846.22
2022-12-12T04:29:54.707Z,100849.72
2022-12-12T04:33:03.287Z,100851.44
2022-12-12T04:36:09.561Z,100853.22
2022-12-12T04:39:16.182Z,100854.09
2022-12-12T04:42:23.752Z,100855.81
2022-12-12T04:45:34.270Z,100856.69
2022-12-12T04:48:43.757Z,100859.28
2022-12-12T04:51:51.159Z,100866.25
2022-12-12T04:55:02.987Z,100864.47
2022-12-12T04:58:08.202Z,100861.84
2022-12-12T05:01:16.900Z,100860.91
2022-12-12T05:04:25.051Z,100867.88
2022-12-12T05:07:39.527Z,100861.78
2022-12-12T05:10:45.928Z,100866.97
2022-12-12T05:13:49.843Z,100858.31
2022-12-12T05:16:56.258Z,100865.31
2022-12-12T05:19:59.708Z,100865.25
2022-12-12T05:23:02.333Z,100865.22
2022-12-12T05:26:09.373Z,100862.66
2022-12-12T05:29:12.004Z,100856.59
2022-12-12T05:32:14.586Z,100862.63
2022-12-12T05:35:17.437Z,100867.84
2022-12-12T05:38:20.034Z,100865.22
2022-12-12T05:41:24.201Z,100866.94
2022-12-12T05:44:26.861Z,100873.09
2022-12-12T05:47:29.438Z,100872.19
2022-12-12T05:50:32.016Z,100869.56
2022-12-12T05:53:42.201Z,100870.44
2022-12-12T05:56:47.059Z,100879.06
2022-12-12T05:59:49.819Z,100870.44
2022-12-12T06:02:52.535Z,100879.97
2022-12-12T06:05:55.187Z,100878.25
2022-12-12T06:08:57.901Z,100880.91
2022-12-12T06:12:01.838Z,100886.91
2022-12-12T06:15:04.863Z,100886.03
2022-12-12T06:18:07.495Z,100891.28
2022-12-12T06:21:12.198Z,100883.47
2022-12-12T06:24:14.807Z,100891.28
2022-12-12T06:27:18.799Z,100893.88
2022-12-12T06:30:21.554Z,100904.22
2022-12-12T06:33:24.469Z,100913.78
2022-12-12T06:36:27.110Z,100908.63
2022-12-12T06:39:29.721Z,100900.00
2022-12-12T06:42:33.642Z,100903.50
2022-12-12T06:45:36.228Z,100917.25
2022-12-12T06:48:38.814Z,100915.59
2022-12-12T06:51:44.254Z,100917.31
2022-12-12T06:54:47.336Z,100917.31
2022-12-12T06:57:51.340Z,100915.66
2022-12-12T07:00:54.970Z,100920.06
2022-12-12T07:03:58.185Z,100913.94
2022-12-12T07:07:00.793Z,100913.91
2022-12-12T07:10:03.380Z,100910.47
2022-12-12T07:13:07.450Z,100920.91
2022-12-12T07:16:10.137Z,100924.34
2022-12-12T07:19:12.817Z,100916.53
2022-12-12T07:22:15.396Z,100912.97
2022-12-12T07:25:18.148Z,100912.19
2022-12-12T07:28:22.157Z,100917.34
2022-12-12T07:31:26.419Z,100920.00
2022-12-12T07:34:30.127Z,100922.59
2022-12-12T07:37:32.753Z,100929.50
2022-12-12T07:40:35.352Z,100924.25
2022-12-12T07:43:43.797Z,100925.13
2022-12-12T07:46:47.381Z,100920.78
2022-12-12T07:49:49.967Z,100919.94
2022-12-12T07:52:52.763Z,100929.53
2022-12-12T07:55:56.389Z,100938.19
2022-12-12T07:59:00.399Z,100934.78
2022-12-12T08:02:03.050Z,100939.88
2022-12-12T08:05:06.504Z,100941.63
2022-12-12T08:08:09.321Z,100933.84
2022-12-12T08:11:13.726Z,100934.72
2022-12-12T08:14:18.324Z,100937.31
2022-12-12T08:17:20.919Z,100936.41
2022-12-12T08:20:23.816Z,100933.84
2022-12-12T08:23:26.380Z,100930.31
2022-12-12T08:26:30.109Z,100928.66
2022-12-12T08:29:34.056Z,100939.94
2022-12-12T08:32:36.957Z,100942.56
2022-12-12T08:35:39.547Z,100949.53
2022-12-12T08:38:42.316Z,100948.66
2022-12-12T08:41:48.964Z,100946.94
2022-12-12T08:44:52.951Z,100948.69
2022-12-12T08:47:55.531Z,100954.72
2022-12-12T08:50:58.619Z,100954.78
2022-12-12T08:54:01.531Z,100957.44
2022-12-12T08:57:04.445Z,100960.88
2022-12-12T09:00:10.607Z,100968.69
2022-12-12T09:03:13.455Z,100961.81
2022-12-12T09:06:17.149Z,100967.03
2022-12-12T09:09:19.769Z,100960.13
2022-12-12T09:12:22.375Z,100968.81
2022-12-12T09:15:26.297Z,100974.06
2022-12-12T09:18:29.005Z,100975.84
2022-12-12T09:21:31.567Z,100970.63
2022-12-12T09:24:34.163Z,100969.78
2022-12-12T09:27:37.025Z,100972.41
2022-12-12T09:30:42.341Z,100975.88
2022-12-12T09:33:45.020Z,100968.94
2022-12-12T09:36:47.644Z,100971.59
2022-12-12T09:39:52.311Z,100970.75
2022-12-12T09:42:55.132Z,100981.19
2022-12-12T09:46:01.059Z,100980.34
2022-12-12T09:49:12.111Z,100969.88
2022-12-12T09:52:16.749Z,100978.59
2022-12-12T09:55:38.621Z,100971.66
2022-12-12T09:58:52.506Z,100976.88
2022-12-12T10:02:06.438Z,100976.00
2022-12-12T10:05:20.539Z,100978.63
2022-12-12T10:08:29.687Z,100983.00
2022-12-12T10:11:54.793Z,100985.63
2022-12-12T10:15:01.862Z,100974.28
2022-12-12T10:18:13.443Z,100980.38
2022-12-12T10:21:21.072Z,100978.63
2022-12-12T10:24:31.525Z,100977.78
2022-12-12T10:27:34.188Z,100974.28
2022-12-12T10:30:44.824Z,100973.38
2022-12-12T10:34:06.565Z,100975.13
2022-12-12T10:37:22.877Z,100970.72
2022-12-12T10:40:38.814Z,100968.97
2022-12-12T10:43:47.118Z,100967.16
2022-12-12T10:46:56.875Z,100970.59
2022-12-12T10:50:14.440Z,100970.66
2022-12-12T10:53:17.080Z,100967.13
2022-12-12T10:56:22.138Z,100958.38
2022-12-12T10:59:24.694Z,100963.56
2022-12-12T11:02:31.398Z,100958.16
2022-12-12T11:05:37.765Z,100965.63
2022-12-12T11:08:52.425Z,100961.31
2022-12-12T11:12:00.165Z,100965.13
2022-12-12T11:15:07.478Z,100961.75
2022-12-12T11:18:15.575Z,100960.91
2022-12-12T11:21:21.458Z,100962.88
2022-12-12T11:24:30.576Z,100960.09
2022-12-12T11:27:35.485Z,100955.84
2022-12-12T11:30:40.532Z,100964.44
2022-12-12T11:33:49.768Z,100957.59
2022-12-12T11:36:54.915Z,100955.78
2022-12-12T11:39:58.385Z,100955.81
2022-12-12T11:43:19.972Z,100951.41
2022-12-12T11:46:25.939Z,100950.53
2022-12-12T11:49:28.532Z,100946.16
2022-12-12T11:52:34.045Z,100947.03
2022-12-12T11:55:45.469Z,100947.94
2022-12-12T11:58:56.318Z,100943.59
2022-12-12T12:02:12.074Z,100940.16
2022-12-12T12:05:26.130Z,100941.00
2022-12-12T12:08:42.791Z,100944.53
2022-12-12T12:11:55.713Z,100948.84
2022-12-12T12:15:23.313Z,100945.34
2022-12-12T12:18:49.146Z,100941.84
2022-12-12T12:22:02.819Z,100943.63
2022-12-12T12:25:24.412Z,100944.53
2022-12-12T12:29:03.139Z,100936.66
2022-12-12T12:32:17.840Z,100935.78
2022-12-12T12:35:29.832Z,100934.88
2022-12-12T12:38:49.564Z,100940.88
2022-12-12T12:42:06.342Z,100939.03
2022-12-12T12:45:19.215Z,100929.28
2022-12-12T12:48:25.488Z,100929.06
2022-12-12T12:51:34.761Z,100920.78
2022-12-12T12:54:40.736Z,100919.56
2022-12-12T12:57:48.020Z,100924.00
2022-12-12T13:00:58.787Z,100928.25
2022-12-12T13:04:06.209Z,100924.91
2022-12-12T13:07:14.858Z,100931.47
2022-12-12T13:10:22.349Z,100931.78
2022-12-12T13:13:30.525Z,100929.34
2022-12-12T13:16:34.277Z,100938.13
2022-12-12T13:19:40.397Z,100926.88
2022-12-12T13:22:54.914Z,100933.88
2022-12-12T13:26:02.094Z,100936.50
2022-12-12T13:29:31.596Z,100929.47
2022-12-12T13:32:53.836Z,100936.47
2022-12-12T13:36:05.840Z,100938.25
2022-12-12T13:39:22.189Z,100932.19
2022-12-12T13:42:24.802Z,100941.78
2022-12-12T13:45:38.027Z,100942.69
2022-12-12T13:48:47.042Z,100947.94
2022-12-12T13:51:49.943Z,100948.81
2022-12-12T13:55:12.067Z,100944.47
2022-12-12T13:58:21.225Z,100954.06
2022-12-12T14:01:34.324Z,100948.00
2022-12-12T14:04:39.485Z,100947.09
2022-12-12T14:07:49.698Z,100949.75
2022-12-12T14:10:56.371Z,100943.59
2022-12-12T14:14:08.506Z,100947.97
2022-12-12T14:17:21.737Z,100948.03
2022-12-12T14:20:28.208Z,100952.41
2022-12-12T14:23:32.558Z,100959.38
2022-12-12T14:26:49.358Z,100961.13
2022-12-12T14:29:51.962Z,100957.66
2022-12-12T14:33:06.938Z,100963.78
2022-12-12T14:36:26.526Z,100957.69
2022-12-12T14:40:02.566Z,100966.44
2022-12-12T14:43:20.626Z,100967.25
2022-12-12T14:46:25.371Z,100963.81
2022-12-12T14:49:29.323Z,100967.28
2022-12-12T14:52:32.012Z,100966.44
2022-12-12T14:55:34.622Z,100966.41
2022-12-12T14:58:41.073Z,100961.22
2022-12-12T15:01:45.772Z,100962.09
2022-12-12T15:04:55.172Z,100956.84
2022-12-12T15:08:00.392Z,100956.84
2022-12-12T15:11:03.013Z,100953.38
2022-12-12T15:14:05.923Z,100962.94
2022-12-12T15:17:14.502Z,100955.97
2022-12-12T15:20:20.760Z,100965.56
2022-12-12T15:23:24.278Z,100964.66
2022-12-12T15:26:29.962Z,100970.75
2022-12-12T15:29:33.761Z,100975.09
2022-12-12T15:32:37.081Z,100968.97
2022-12-12T15:35:41.429Z,100980.34
2022-12-12T15:38:44.076Z,100967.25
2022-12-12T15:41:46.997Z,100962.91
2022-12-12T15:44:51.390Z,100968.09
2022-12-12T15:47:55.183Z,100968.03
2022-12-12T15:51:03.130Z,100973.34
2022-12-12T15:54:06.006Z,100981.13
2022-12-12T15:57:15.925Z,100982.00
2022-12-12T16:00:32.034Z,100980.22
2022-12-12T16:03:35.841Z,100981.06
2022-12-12T16:06:42.239Z,100981.94
2022-12-12T16:09:58.804Z,100980.25
2022-12-12T16:13:03.822Z,100986.31
2022-12-12T16:16:34.438Z,100987.19
2022-12-12T16:19:42.608Z,100994.09
2022-12-12T16:22:49.519Z,100988.97
2022-12-12T16:25:52.154Z,100987.19
2022-12-12T16:28:54.781Z,100984.56
2022-12-12T16:31:58.373Z,100983.69
2022-12-12T16:35:01.027Z,100974.09
2022-12-12T16:38:13.794Z,100967.13
2022-12-12T16:41:18.797Z,100973.16
2022-12-12T16:44:21.372Z,100978.34
2022-12-12T16:47:25.468Z,100987.00
2022-12-12T16:50:28.048Z,100980.00
2022-12-12T16:53:32.019Z,100974.78
2022-12-12T16:56:34.606Z,100976.47
2022-12-12T16:59:38.271Z,100979.94
2022-12-12T17:02:41.356Z,100973.94
2022-12-12T17:05:46.272Z,100985.19
2022-12-12T17:08:50.206Z,100971.25
2022-12-12T17:11:52.819Z,100967.69
2022-12-12T17:14:55.398Z,100963.38
2022-12-12T17:17:58.911Z,100972.06
2022-12-12T17:21:01.522Z,100968.53
2022-12-12T17:24:05.957Z,100965.91
2022-12-12T17:27:08.527Z,100968.50
2022-12-12T17:30:13.644Z,100973.66
2022-12-12T17:33:17.246Z,100971.19
2022-12-12T17:36:20.194Z,100969.34
2022-12-12T17:39:24.139Z,100981.47
2022-12-12T17:42:26.773Z,100973.75
2022-12-12T17:45:29.423Z,100976.31
2022-12-12T17:48:33.964Z,100970.22
2022-12-12T17:51:37.451Z,100970.91
2022-12-12T17:54:41.707Z,100974.31
2022-12-12T17:57:44.267Z,100980.44
2022-12-12T18:00:46.928Z,100986.56
2022-12-12T18:03:50.489Z,100986.56
2022-12-12T18:06:53.180Z,100983.09
2022-12-12T18:09:57.178Z,100993.50
2022-12-12T18:12:59.807Z,100996.88
2022-12-12T18:16:02.541Z,100994.19
2022-12-12T18:19:05.377Z,100986.50
2022-12-12T18:22:07.980Z,100992.59
2022-12-12T18:25:12.093Z,100997.66
2022-12-12T18:28:14.954Z,100988.09
2022-12-12T18:31:17.711Z,100990.75
2022-12-12T18:34:20.674Z,101002.91
2022-12-12T18:37:23.368Z,100997.53
2022-12-12T18:40:27.951Z,101000.25
2022-12-12T18:43:31.521Z,100998.50
2022-12-12T18:46:42.004Z,100995.84
2022-12-12T18:49:45.776Z,100995.09
2022-12-12T18:52:48.484Z,100992.44
2022-12-12T18:55:52.469Z,100991.50
2022-12-12T18:58:55.617Z,100992.38
2022-12-12T19:01:58.271Z,100982.75
2022-12-12T19:05:01.072Z,100983.59
2022-12-12T19:08:03.917Z,100978.31
2022-12-12T19:11:09.180Z,100979.97
2022-12-12T19:14:13.643Z,100978.91
2022-12-12T19:17:18.421Z,100978.16
2022-12-12T19:20:25.842Z,100985.25
2022-12-12T19:23:28.479Z,100982.50
2022-12-12T19:26:32.490Z,100991.97
2022-12-12T19:29:35.130Z,100992.78
2022-12-12T19:32:37.716Z,100989.44
2022-12-12T19:35:40.349Z,100998.06
2022-12-12T19:38:43.273Z,100999.66
2022-12-12T19:41:47.226Z,100988.56
2022-12-12T19:44:49.957Z,100994.47
2022-12-12T19:47:52.549Z,100996.94
2022-12-12T19:50:55.356Z,100992.69
2022-12-12T19:54:00.409Z,101001.53
2022-12-12T19:57:04.391Z,100997.91
2022-12-12T20:00:09.521Z,100993.66
2022-12-12T20:03:12.115Z,100996.38
2022-12-12T20:06:14.742Z,100991.91
2022-12-12T20:09:19.855Z,100995.16
2022-12-12T20:12:23.796Z,100990.63
2022-12-12T20:15:26.501Z,100986.50
2022-12-12T20:18:29.084Z,100981.25
2022-12-12T20:24:54.331Z,100995.97
2022-12-12T20:27:58.304Z,101001.84
2022-12-12T20:31:05.746Z,101006.09
2022-12-12T20:34:08.432Z,101011.53
2022-12-12T20:37:14.147Z,101009.84
2022-12-12T20:40:21.018Z,101008.03
2022-12-12T20:43:25.137Z,101018.38
2022-12-12T20:46:30.604Z,101014.88
2022-12-12T20:49:33.337Z,101014.09
2022-12-12T20:52:35.978Z,101017.50
2022-12-12T20:55:38.632Z,101015.78
2022-12-12T20:58:43.005Z,101020.16
2022-12-12T21:01:46.937Z,101015.69
2022-12-12T21:04:50.429Z,101008.53
2022-12-12T21:07:53.086Z,101006.81
2022-12-12T21:10:55.729Z,101012.09
2022-12-12T21:14:02.866Z,101001.75
2022-12-12T21:17:05.854Z,101005.22
2022-12-12T21:20:09.757Z,101009.41
2022-12-12T21:23:12.364Z,101005.91
2022-12-12T21:26:21.519Z,101008.81
2022-12-12T21:29:27.817Z,100997.41
2022-12-12T21:32:30.446Z,100994.81
2022-12-12T21:35:34.910Z,100995.31
2022-12-12T21:38:38.610Z,100994.56
2022-12-12T21:41:43.631Z,100995.44
2022-12-12T21:44:47.622Z,100998.13
2022-12-12T21:47:50.225Z,101007.56
2022-12-12T21:50:52.801Z,101015.97
2022-12-12T21:53:55.374Z,101014.44
2022-12-12T21:56:58.865Z,101017.91
2022-12-12T22:00:03.019Z,101026.47
2022-12-12T22:03:05.619Z,101019.53
2022-12-12T22:06:12.310Z,101023.00
2022-12-12T22:09:15.006Z,101010.34
2022-12-12T22:12:18.699Z,101004.19
2022-12-12T22:15:23.234Z,101013.38
2022-12-12T22:18:25.808Z,101011.03
2022-12-12T22:21:28.536Z,101016.09
2022-12-12T22:24:31.285Z,101008.34
2022-12-12T22:27:34.495Z,101014.50
2022-12-12T22:30:38.503Z,101004.88
2022-12-12T22:33:41.121Z,101003.09
2022-12-12T22:36:45.105Z,100993.47
2022-12-12T22:39:47.684Z,100991.00
2022-12-12T22:42:50.262Z,100997.69
2022-12-12T22:45:54.317Z,100988.22
2022-12-12T22:49:00.002Z,100984.81
2022-12-12T22:52:02.616Z,100988.56
2022-12-12T22:55:05.911Z,100996.78
2022-12-12T22:58:08.695Z,100986.53
2022-12-12T23:01:14.566Z,100998.75
2022-12-12T23:04:17.269Z,100992.84
2022-12-12T23:07:19.901Z,100985.84
2022-12-12T23:10:22.828Z,100977.88
2022-12-12T23:13:25.404Z,100981.31
2022-12-12T23:16:30.812Z,100980.53
2022-12-12T23:19:33.614Z,100980.72
2022-12-12T23:22:36.270Z,100977.06
2022-12-12T23:25:39.819Z,100977.84
2022-12-12T23:28:43.223Z,100983.69
2022-12-12T23:31:47.861Z,100976.13
2022-12-12T23:34:50.654Z,100982.47
2022-12-12T23:37:53.223Z,100986.00
2022-12-12T23:40:55.861Z,100983.41
2022-12-12T23:43:58.840Z,100974.94
2022-12-12T23:47:02.800Z,100976.78
2022-12-12T23:50:06.142Z,100978.44
2022-12-12T23:53:10.648Z,100975.09
2022-12-12T23:56:13.438Z,100980.31
2022-12-12T23:59:18.193Z,100983.75
